createdAt,value
2023-02-24T00:02:21.060Z,97271.88
2023-02-24T00:04:51.770Z,97271.72
2023-02-24T00:07:21.186Z,97266.13
2023-02-24T00:09:49.427Z,97263.00
2023-02-24T00:12:16.983Z,97260.44
2023-02-24T00:14:45.367Z,97269.97
2023-02-24T00:17:15.754Z,97258.69
2023-02-24T00:19:42.425Z,97250.44
2023-02-24T00:22:09.918Z,97262.19
2023-02-24T00:24:36.724Z,97260.28
2023-02-24T00:27:11.129Z,97274.34
2023-02-24T00:29:37.858Z,97265.56
2023-02-24T00:32:07.145Z,97269.88
2023-02-24T00:34:36.401Z,97265.66
2023-02-24T00:37:06.855Z,97265.19
2023-02-24T00:39:34.714Z,97244.94
2023-02-24T00:42:06.778Z,97260.94
2023-02-24T00:44:40.865Z,97260.09
2023-02-24T00:47:10.286Z,97233.44
2023-02-24T00:49:42.729Z,97251.41
2023-02-24T00:52:15.495Z,97250.34
2023-02-24T00:54:43.166Z,97245.13
2023-02-24T00:57:10.793Z,97249.69
2023-02-24T00:59:38.218Z,97228.34
2023-02-24T01:02:07.173Z,97244.31
2023-02-24T01:04:34.421Z,97246.84
2023-02-24T01:07:01.660Z,97225.78
2023-02-24T01:09:30.668Z,97240.75
2023-02-24T01:12:17.070Z,97237.09
2023-02-24T01:14:47.814Z,97235.81
2023-02-24T01:17:15.893Z,97235.19
2023-02-24T01:19:44.306Z,97235.81
2023-02-24T01:22:14.938Z,97235.53
2023-02-24T01:24:43.794Z,97228.06
2023-02-24T01:27:12.653Z,97232.81
2023-02-24T01:29:39.673Z,97226.34
2023-02-24T01:32:08.089Z,97219.56
2023-02-24T01:34:35.012Z,97223.50
2023-02-24T01:37:01.856Z,97214.09
2023-02-24T01:39:28.291Z,97206.97
2023-02-24T01:41:54.761Z,97200.78
2023-02-24T01:44:25.195Z,97207.25
2023-02-24T01:46:56.864Z,97212.06
2023-02-24T01:49:36.979Z,97200.28
2023-02-24T01:52:20.419Z,97203.38
2023-02-24T01:54:50.210Z,97194.72
2023-02-24T01:57:21.022Z,97189.50
2023-02-24T01:59:51.034Z,97203.66
2023-02-24T02:02:19.672Z,97201.06
2023-02-24T02:04:50.879Z,97199.25
2023-02-24T02:07:21.774Z,97180.28
2023-02-24T02:09:50.363Z,97178.72
2023-02-24T02:12:17.344Z,97177.13
2023-02-24T02:14:52.276Z,97173.91
2023-02-24T02:17:40.929Z,97173.28
2023-02-24T02:20:29.049Z,97177.03
2023-02-24T02:23:13.799Z,97173.56
2023-02-24T02:26:05.352Z,97169.91
2023-02-24T02:28:41.347Z,97161.72
2023-02-24T02:31:13.761Z,97165.19
2023-02-24T02:34:11.787Z,97157.44
2023-02-24T02:36:56.821Z,97146.22
2023-02-24T02:39:48.022Z,97150.31
2023-02-24T02:42:34.021Z,97154.41
2023-02-24T02:45:13.328Z,97155.59
2023-02-24T02:47:47.292Z,97143.03
2023-02-24T02:50:30.349Z,97152.22
2023-02-24T02:53:04.284Z,97147.16
2023-02-24T02:55:41.265Z,97142.66
2023-02-24T02:58:14.737Z,97139.38
2023-02-24T03:00:58.846Z,97141.19
2023-02-24T03:03:29.217Z,97142.19
2023-02-24T03:06:22.395Z,97151.16
2023-02-24T03:08:55.609Z,97151.50
2023-02-24T03:11:24.126Z,97141.16
2023-02-24T03:13:54.009Z,97138.38
2023-02-24T03:16:23.173Z,97119.78
2023-02-24T03:19:13.247Z,97124.16
2023-02-24T03:21:45.393Z,97132.56
2023-02-24T03:24:15.478Z,97129.09
2023-02-24T03:26:50.339Z,97123.88
2023-02-24T03:29:28.497Z,97132.19
2023-02-24T03:32:08.236Z,97143.13
2023-02-24T03:35:00.267Z,97134.28
2023-02-24T03:37:30.059Z,97130.13
2023-02-24T03:40:11.746Z,97130.03
2023-02-24T03:42:42.123Z,97135.53
2023-02-24T03:45:09.377Z,97134.03
2023-02-24T03:47:36.356Z,97138.84
2023-02-24T03:50:11.597Z,97133.22
2023-02-24T03:52:55.689Z,97124.81
2023-02-24T03:55:34.447Z,97129.41
2023-02-24T03:58:39.606Z,97116.19
2023-02-24T04:01:14.709Z,97105.88
2023-02-24T04:03:41.089Z,97129.06
2023-02-24T04:06:43.136Z,97125.22
2023-02-24T04:09:33.375Z,97117.28
2023-02-24T04:12:31.930Z,97119.66
2023-02-24T04:15:10.463Z,97110.94
2023-02-24T04:17:45.842Z,97119.44
2023-02-24T04:20:16.550Z,97116.69
2023-02-24T04:22:48.966Z,97127.16
2023-02-24T04:25:24.517Z,97108.09
2023-02-24T04:27:53.834Z,97119.22
2023-02-24T04:30:22.223Z,97119.59
2023-02-24T04:32:49.578Z,97120.06
2023-02-24T04:35:20.421Z,97118.06
2023-02-24T04:37:48.072Z,97106.59
2023-02-24T04:40:18.658Z,97113.47
2023-02-24T04:42:49.148Z,97094.34
2023-02-24T04:45:28.034Z,97128.81
2023-02-24T04:48:00.821Z,97129.81
2023-02-24T04:50:36.826Z,97126.00
2023-02-24T04:53:09.735Z,97114.78
2023-02-24T04:55:42.370Z,97118.41
2023-02-24T04:58:13.293Z,97112.94
2023-02-24T05:00:41.644Z,97115.22
2023-02-24T05:03:11.535Z,97116.56
2023-02-24T05:05:38.355Z,97104.75
2023-02-24T05:08:10.306Z,97104.00
2023-02-24T05:10:44.599Z,97083.94
2023-02-24T05:13:14.682Z,97104.00
2023-02-24T05:15:42.983Z,97086.50
2023-02-24T05:18:14.836Z,97076.59
2023-02-24T05:21:08.854Z,97088.34
2023-02-24T05:23:46.885Z,97083.41
2023-02-24T05:26:17.544Z,97073.13
2023-02-24T05:28:51.964Z,97066.09
2023-02-24T05:31:26.059Z,97044.50
2023-02-24T05:33:57.691Z,97040.28
2023-02-24T05:36:27.041Z,97046.78
2023-02-24T05:38:57.942Z,97039.03
2023-02-24T05:41:32.622Z,97057.34
2023-02-24T05:44:02.313Z,97056.81
2023-02-24T05:46:32.586Z,97031.56
2023-02-24T05:49:16.004Z,97045.31
2023-02-24T05:51:54.472Z,97040.28
2023-02-24T05:54:29.567Z,97032.19
2023-02-24T05:57:00.253Z,97028.91
2023-02-24T05:59:32.539Z,97018.53
2023-02-24T06:02:02.082Z,97031.00
2023-02-24T06:04:39.529Z,97026.97
2023-02-24T06:07:19.352Z,97022.59
2023-02-24T06:09:50.163Z,97029.94
2023-02-24T06:12:18.050Z,97025.78
2023-02-24T06:14:47.638Z,97018.00
2023-02-24T06:17:19.749Z,97023.66
2023-02-24T06:19:49.535Z,97013.50
2023-02-24T06:22:20.840Z,97020.38
2023-02-24T06:24:49.527Z,97017.75
2023-02-24T06:27:18.971Z,97006.38
2023-02-24T06:29:55.057Z,96998.94
2023-02-24T06:32:24.986Z,97001.66
2023-02-24T06:34:52.385Z,97017.56
2023-02-24T06:37:18.899Z,97017.56
2023-02-24T06:39:45.858Z,97019.56
2023-02-24T06:42:12.992Z,97022.94
2023-02-24T06:44:41.013Z,97053.44
2023-02-24T06:47:10.755Z,97026.13
2023-02-24T06:49:37.587Z,97046.00
2023-02-24T06:52:06.525Z,97048.06
2023-02-24T06:54:36.385Z,97039.59
2023-02-24T06:57:06.045Z,97046.53
2023-02-24T06:59:32.692Z,97040.31
2023-02-24T07:02:01.868Z,97046.44
2023-02-24T07:04:29.153Z,97039.69
2023-02-24T07:06:58.340Z,97035.91
2023-02-24T07:09:26.780Z,97023.16
2023-02-24T07:11:56.005Z,97044.34
2023-02-24T07:14:24.663Z,97045.09
2023-02-24T07:16:55.402Z,97027.53
2023-02-24T07:19:29.183Z,97034.00
2023-02-24T07:22:00.322Z,97019.97
2023-02-24T07:24:40.565Z,97019.06
2023-02-24T07:27:11.806Z,97009.94
2023-02-24T07:29:39.022Z,97031.09
2023-02-24T07:32:09.523Z,97027.28
2023-02-24T07:34:42.609Z,97034.75
2023-02-24T07:37:10.711Z,97008.78
2023-02-24T07:39:39.488Z,97043.84
2023-02-24T07:42:10.517Z,97046.78
2023-02-24T07:44:38.856Z,97034.94
2023-02-24T07:47:08.294Z,97037.66
2023-02-24T07:49:39.326Z,97028.53
2023-02-24T07:52:08.239Z,97019.53
2023-02-24T07:54:39.273Z,97040.59
2023-02-24T07:57:13.526Z,97027.38
2023-02-24T07:59:44.948Z,97029.63
2023-02-24T08:02:11.516Z,97036.44
2023-02-24T08:04:41.138Z,97029.50
2023-02-24T08:07:14.296Z,97031.84
2023-02-24T08:09:46.884Z,97039.63
2023-02-24T08:12:21.307Z,97043.38
2023-02-24T08:14:51.153Z,97037.81
2023-02-24T08:17:20.406Z,97047.84
2023-02-24T08:19:48.884Z,97047.66
2023-02-24T08:22:19.549Z,97052.47
2023-02-24T08:25:06.489Z,97048.94
2023-02-24T08:27:40.321Z,97047.56
2023-02-24T08:30:09.315Z,97033.72
2023-02-24T08:32:46.947Z,97038.59
2023-02-24T08:35:15.373Z,97035.94
2023-02-24T08:37:47.605Z,97036.91
2023-02-24T08:40:31.903Z,97029.66
2023-02-24T08:43:17.688Z,97037.88
2023-02-24T08:45:46.776Z,97026.84
2023-02-24T08:48:18.419Z,97028.16
2023-02-24T08:50:45.701Z,97022.34
2023-02-24T08:53:19.235Z,97018.25
2023-02-24T08:55:51.663Z,97007.47
2023-02-24T08:58:27.183Z,97015.81
2023-02-24T09:00:59.285Z,97020.28
2023-02-24T09:03:29.002Z,97009.06
2023-02-24T09:05:58.277Z,97009.31
2023-02-24T09:08:25.197Z,97000.69
2023-02-24T09:10:52.106Z,97000.31
2023-02-24T09:13:18.951Z,97001.19
2023-02-24T09:15:45.416Z,96999.78
2023-02-24T09:18:14.358Z,96995.53
2023-02-24T09:20:59.552Z,96994.47
2023-02-24T09:23:45.814Z,96985.88
2023-02-24T09:26:14.119Z,96992.28
2023-02-24T09:28:54.791Z,96988.19
2023-02-24T09:31:24.669Z,96979.19
2023-02-24T09:33:51.417Z,96981.63
2023-02-24T09:36:30.200Z,96980.59
2023-02-24T09:39:00.684Z,96983.47
2023-02-24T09:41:56.940Z,96980.84
2023-02-24T09:44:36.135Z,96981.88
2023-02-24T09:47:09.209Z,96974.53
2023-02-24T09:49:50.246Z,96972.06
2023-02-24T09:52:18.665Z,96952.44
2023-02-24T09:55:09.323Z,96966.31
2023-02-24T09:58:06.637Z,96945.63
2023-02-24T10:00:44.165Z,96935.09
2023-02-24T10:03:41.643Z,96933.03
2023-02-24T10:06:26.782Z,96928.91
2023-02-24T10:09:24.640Z,96931.44
2023-02-24T10:11:55.406Z,96932.22
2023-02-24T10:14:44.512Z,96925.31
2023-02-24T10:17:25.167Z,96910.78
2023-02-24T10:20:00.002Z,96915.97
2023-02-24T10:22:52.383Z,96918.72
2023-02-24T10:25:57.744Z,96915.59
2023-02-24T10:28:36.422Z,96901.88
2023-02-24T10:31:25.660Z,96913.88
2023-02-24T10:33:59.497Z,96926.16
2023-02-24T10:36:38.465Z,96923.72
2023-02-24T10:39:26.924Z,96923.09
2023-02-24T10:41:57.696Z,96910.72
2023-02-24T10:44:27.125Z,96924.97
2023-02-24T10:47:11.245Z,96920.19
2023-02-24T10:49:56.773Z,96927.78
2023-02-24T10:53:13.849Z,96934.75
2023-02-24T10:55:45.024Z,96937.06
2023-02-24T10:58:28.467Z,96952.66
2023-02-24T11:01:18.447Z,96965.53
2023-02-24T11:04:02.314Z,96968.47
2023-02-24T11:06:55.363Z,96963.06
2023-02-24T11:09:27.545Z,96980.19
2023-02-24T11:12:18.734Z,96981.16
2023-02-24T11:15:15.876Z,96984.16
2023-02-24T11:17:51.057Z,96993.31
2023-02-24T11:20:48.053Z,96999.22
2023-02-24T11:23:35.999Z,97001.00
2023-02-24T11:26:23.992Z,97000.31
2023-02-24T11:29:25.832Z,96989.28
2023-02-24T11:32:15.468Z,97000.22
2023-02-24T11:34:59.548Z,97004.66
2023-02-24T11:37:43.433Z,97009.25
2023-02-24T11:40:25.146Z,97013.50
2023-02-24T11:43:18.554Z,97019.44
2023-02-24T11:45:54.307Z,97018.41
2023-02-24T11:48:39.478Z,97007.75
2023-02-24T11:51:20.743Z,97014.78
2023-02-24T11:54:06.319Z,97028.38
2023-02-24T11:57:13.022Z,97043.13
2023-02-24T11:59:47.101Z,97031.00
2023-02-24T12:02:43.896Z,97030.78
2023-02-24T12:05:17.045Z,97029.31
2023-02-24T12:08:07.800Z,97030.94
2023-02-24T12:10:47.318Z,97034.38
2023-02-24T12:13:30.105Z,97030.66
2023-02-24T12:16:07.275Z,97047.09
2023-02-24T12:18:49.650Z,97030.81
2023-02-24T12:21:23.010Z,97027.50
2023-02-24T12:23:55.394Z,97030.41
2023-02-24T12:26:31.648Z,97030.06
2023-02-24T12:29:22.686Z,97037.88
2023-02-24T12:32:23.985Z,97029.88
2023-02-24T12:34:53.479Z,97017.88
2023-02-24T12:37:44.909Z,96989.19
2023-02-24T12:40:39.046Z,96989.41
2023-02-24T12:43:23.037Z,96995.00
2023-02-24T12:46:24.320Z,96982.31
2023-02-24T12:49:24.652Z,96969.69
2023-02-24T12:52:20.313Z,96982.88
2023-02-24T12:54:59.637Z,96974.53
2023-02-24T12:57:50.444Z,96982.00
2023-02-24T13:00:24.345Z,96988.56
2023-02-24T13:03:09.525Z,96965.59
2023-02-24T13:05:51.673Z,96961.03
2023-02-24T13:08:33.029Z,96973.63
2023-02-24T13:11:27.543Z,96967.75
2023-02-24T13:14:02.955Z,96966.09
2023-02-24T13:16:32.943Z,96955.44
2023-02-24T13:19:17.617Z,96959.34
2023-02-24T13:21:54.030Z,96959.31
2023-02-24T13:24:23.496Z,96953.56
2023-02-24T13:26:49.974Z,96939.59
2023-02-24T13:29:16.779Z,96940.25
2023-02-24T13:31:46.839Z,96929.50
2023-02-24T13:34:16.015Z,96935.72
2023-02-24T13:36:49.932Z,96950.38
2023-02-24T13:39:34.791Z,96955.53
2023-02-24T13:42:21.065Z,96966.75
2023-02-24T13:44:54.233Z,96961.44
2023-02-24T13:47:26.748Z,96958.38
2023-02-24T13:50:27.524Z,96956.72
2023-02-24T13:53:28.677Z,96920.97
2023-02-24T13:56:23.407Z,96940.00
2023-02-24T13:59:31.726Z,96940.19
2023-02-24T14:02:01.917Z,96926.72
2023-02-24T14:04:31.981Z,96929.78
2023-02-24T14:07:03.407Z,96921.63
2023-02-24T14:09:40.838Z,96916.91
2023-02-24T14:12:30.939Z,96900.34
2023-02-24T14:14:59.214Z,96897.50
2023-02-24T14:17:31.509Z,96928.13
2023-02-24T14:20:14.342Z,96912.81
2023-02-24T14:22:49.974Z,96919.53
2023-02-24T14:25:16.998Z,96911.78
2023-02-24T14:27:47.105Z,96920.56
2023-02-24T14:30:37.781Z,96920.78
2023-02-24T14:33:07.072Z,96917.94
2023-02-24T14:35:46.947Z,96925.69
2023-02-24T14:38:40.391Z,96910.34
2023-02-24T14:41:24.958Z,96925.84
2023-02-24T14:43:52.433Z,96907.84
2023-02-24T14:46:19.142Z,96905.41
2023-02-24T14:48:46.482Z,96910.09
2023-02-24T14:51:24.822Z,96912.72
2023-02-24T14:53:54.222Z,96904.09
2023-02-24T14:56:28.358Z,96901.94
2023-02-24T14:59:01.726Z,96918.31
2023-02-24T15:01:36.357Z,96895.81
2023-02-24T15:04:21.472Z,96902.53
2023-02-24T15:06:49.168Z,96906.03
2023-02-24T15:12:18.828Z,96878.34
2023-02-24T15:14:53.172Z,96894.19
2023-02-24T15:17:22.039Z,96887.25
2023-02-24T15:19:54.404Z,96878.78
2023-02-24T15:22:24.688Z,96871.34
2023-02-24T15:24:53.888Z,96855.41
2023-02-24T15:27:24.743Z,96873.84
2023-02-24T15:30:24.718Z,96877.56
2023-02-24T15:33:27.964Z,96871.66
2023-02-24T15:35:58.334Z,96868.53
2023-02-24T15:38:30.535Z,96871.16
2023-02-24T15:41:03.080Z,96869.19
2023-02-24T15:43:37.267Z,96873.19
2023-02-24T15:46:21.881Z,96868.09
2023-02-24T15:48:51.511Z,96864.66
2023-02-24T15:51:39.218Z,96869.00
2023-02-24T15:54:12.863Z,96859.69
2023-02-24T15:56:41.784Z,96866.53
2023-02-24T15:59:08.423Z,96867.38
2023-02-24T16:01:35.097Z,96869.44
2023-02-24T16:04:04.659Z,96874.75
2023-02-24T16:06:35.040Z,96882.41
2023-02-24T16:09:06.636Z,96868.50
2023-02-24T16:11:38.623Z,96882.84
2023-02-24T16:14:05.189Z,96871.47
2023-02-24T16:16:33.429Z,96861.94
2023-02-24T16:19:00.129Z,96882.91
2023-02-24T16:21:26.713Z,96874.81
2023-02-24T16:23:53.294Z,96877.41
2023-02-24T16:26:23.054Z,96863.28
2023-02-24T16:28:57.727Z,96893.19
2023-02-24T16:31:25.889Z,96899.72
2023-02-24T16:33:56.044Z,96874.00
2023-02-24T16:36:25.190Z,96898.34
2023-02-24T16:38:54.434Z,96900.72
2023-02-24T16:41:20.948Z,96901.09
2023-02-24T16:43:47.538Z,96906.03
2023-02-24T16:46:17.992Z,96907.47
2023-02-24T16:48:47.404Z,96899.69
2023-02-24T16:51:14.598Z,96919.91
2023-02-24T16:53:44.049Z,96913.59
2023-02-24T16:56:15.208Z,96908.88
2023-02-24T16:58:44.362Z,96926.38
2023-02-24T17:01:20.441Z,96910.03
2023-02-24T17:03:50.133Z,96916.09
2023-02-24T17:06:16.698Z,96917.22
2023-02-24T17:08:45.686Z,96906.03
2023-02-24T17:11:18.031Z,96924.41
2023-02-24T17:13:44.665Z,96932.94
2023-02-24T17:16:15.394Z,96900.09
2023-02-24T17:18:44.644Z,96922.63
2023-02-24T17:21:14.627Z,96946.94
2023-02-24T17:23:42.732Z,96956.53
2023-02-24T17:26:12.960Z,96964.56
2023-02-24T17:28:43.663Z,96958.66
2023-02-24T17:31:13.172Z,96941.28
2023-02-24T17:33:41.935Z,96956.69
2023-02-24T17:36:08.485Z,96975.97
2023-02-24T17:38:35.028Z,96958.03
2023-02-24T17:41:02.367Z,96986.63
2023-02-24T17:43:28.904Z,96972.91
2023-02-24T17:45:55.658Z,96972.81
2023-02-24T17:48:22.172Z,96969.31
2023-02-24T17:50:48.935Z,96966.75
2023-02-24T17:53:18.719Z,96971.84
2023-02-24T17:56:01.504Z,96967.53
2023-02-24T17:58:29.609Z,96968.41
2023-02-24T18:00:56.245Z,96960.44
2023-02-24T18:03:23.256Z,96979.88
2023-02-24T18:06:02.303Z,96958.25
2023-02-24T18:08:32.055Z,96997.16
2023-02-24T18:11:00.917Z,96992.97
2023-02-24T18:13:29.260Z,97005.22
2023-02-24T18:15:56.148Z,97020.06
2023-02-24T18:18:23.625Z,97015.50
2023-02-24T18:20:50.149Z,97024.22
2023-02-24T18:23:16.866Z,97000.13
2023-02-24T18:25:43.474Z,97022.59
2023-02-24T18:28:12.561Z,97033.84
2023-02-24T18:30:42.239Z,97031.88
2023-02-24T18:33:09.007Z,97011.50
2023-02-24T18:35:38.387Z,97020.84
2023-02-24T18:38:05.268Z,97026.16
2023-02-24T18:40:31.766Z,97032.72
2023-02-24T18:42:58.204Z,97029.97
2023-02-24T18:45:25.018Z,97027.13
2023-02-24T18:47:52.447Z,97027.66
2023-02-24T18:50:25.061Z,97037.03
2023-02-24T18:52:52.043Z,97041.63
2023-02-24T18:55:19.742Z,97030.81
2023-02-24T18:57:47.420Z,97043.81
2023-02-24T19:00:14.618Z,97049.75
2023-02-24T19:02:43.617Z,97048.47
2023-02-24T19:05:10.501Z,97050.28
2023-02-24T19:07:38.020Z,97044.69
2023-02-24T19:10:05.400Z,97062.28
2023-02-24T19:12:31.892Z,97054.56
2023-02-24T19:14:58.379Z,97063.78
2023-02-24T19:17:24.841Z,97055.41
2023-02-24T19:19:51.352Z,97049.16
2023-02-24T19:22:17.825Z,97061.63
2023-02-24T19:24:47.623Z,97058.63
2023-02-24T19:27:19.663Z,97065.03
2023-02-24T19:29:46.129Z,97070.09
2023-02-24T19:32:14.728Z,97063.03
2023-02-24T19:34:41.380Z,97072.06
2023-02-24T19:37:07.848Z,97068.16
2023-02-24T19:39:34.340Z,97080.44
2023-02-24T19:42:00.894Z,97067.69
2023-02-24T19:44:27.346Z,97071.41
2023-02-24T19:46:53.797Z,97083.06
2023-02-24T19:49:20.281Z,97079.25
2023-02-24T19:51:48.326Z,97091.03
2023-02-24T19:54:16.159Z,97094.03
2023-02-24T19:56:43.707Z,97087.00
2023-02-24T19:59:11.414Z,97100.81
2023-02-24T20:01:38.003Z,97115.13
2023-02-24T20:04:05.484Z,97110.34
2023-02-24T20:06:40.933Z,97108.88
2023-02-24T20:09:15.418Z,97117.75
2023-02-24T20:12:05.682Z,97119.91
2023-02-24T20:14:31.570Z,97114.16
2023-02-24T20:16:58.304Z,97121.19
2023-02-24T20:19:24.871Z,97109.84
2023-02-24T20:21:51.478Z,97111.84
2023-02-24T20:24:18.877Z,97114.13
2023-02-24T20:26:47.665Z,97121.69
2023-02-24T20:29:16.504Z,97122.19
2023-02-24T20:31:47.581Z,97133.88
2023-02-24T20:34:16.758Z,97122.19
2023-02-24T20:36:46.470Z,97129.09
2023-02-24T20:39:13.037Z,97127.94
2023-02-24T20:41:40.114Z,97109.16
2023-02-24T20:44:07.940Z,97132.69
2023-02-24T20:46:34.610Z,97143.84
2023-02-24T20:49:04.183Z,97142.19
2023-02-24T20:51:31.720Z,97134.59
2023-02-24T20:53:59.102Z,97140.34
2023-02-24T20:56:28.135Z,97145.50
2023-02-24T20:59:03.739Z,97156.34
2023-02-24T21:01:34.713Z,97155.53
2023-02-24T21:04:01.939Z,97160.66
2023-02-24T21:06:28.891Z,97163.94
2023-02-24T21:08:56.528Z,97156.13
2023-02-24T21:11:23.471Z,97161.19
2023-02-24T21:13:51.094Z,97157.50
2023-02-24T21:16:19.762Z,97161.56
2023-02-24T21:18:51.429Z,97168.66
2023-02-24T21:21:19.543Z,97173.50
2023-02-24T21:23:50.312Z,97177.66
2023-02-24T21:26:20.408Z,97165.47
2023-02-24T21:28:56.845Z,97180.63
2023-02-24T21:31:24.031Z,97183.56
2023-02-24T21:33:52.044Z,97171.97
2023-02-24T21:36:21.026Z,97183.69
2023-02-24T21:38:50.537Z,97187.28
2023-02-24T21:41:21.729Z,97184.34
2023-02-24T21:43:55.495Z,97194.34
2023-02-24T21:46:24.922Z,97192.34
2023-02-24T21:48:55.571Z,97195.47
2023-02-24T21:51:24.778Z,97203.56
2023-02-24T21:53:54.896Z,97185.28
2023-02-24T21:56:24.886Z,97194.13
2023-02-24T21:58:59.308Z,97205.03
2023-02-24T22:01:33.997Z,97208.41
2023-02-24T22:04:04.958Z,97183.63
2023-02-24T22:06:34.366Z,97203.84
2023-02-24T22:09:02.443Z,97195.06
2023-02-24T22:11:31.829Z,97202.44
2023-02-24T22:13:58.969Z,97201.03
2023-02-24T22:16:26.306Z,97203.91
2023-02-24T22:18:55.321Z,97191.66
2023-02-24T22:21:24.131Z,97199.81
2023-02-24T22:23:53.144Z,97194.44
2023-02-24T22:26:23.668Z,97196.13
2023-02-24T22:28:54.517Z,97191.09
2023-02-24T22:31:24.434Z,97192.50
2023-02-24T22:33:53.898Z,97189.28
2023-02-24T22:36:25.021Z,97200.41
2023-02-24T22:38:52.998Z,97206.13
2023-02-24T22:41:23.139Z,97206.34
2023-02-24T22:43:53.864Z,97213.56
2023-02-24T22:46:26.494Z,97210.56
2023-02-24T22:48:53.483Z,97215.97
2023-02-24T22:51:24.185Z,97209.69
2023-02-24T22:53:54.918Z,97215.97
2023-02-24T22:56:26.908Z,97222.19
2023-02-24T22:58:54.144Z,97225.34
2023-02-24T23:01:31.422Z,97225.78
2023-02-24T23:04:07.875Z,97232.69
2023-02-24T23:06:36.042Z,97241.69
2023-02-24T23:09:04.462Z,97235.06
2023-02-24T23:11:36.213Z,97229.31
2023-02-24T23:14:06.045Z,97232.00
2023-02-24T23:16:36.230Z,97212.06
2023-02-24T23:19:15.978Z,97212.72
2023-02-24T23:21:45.750Z,97220.28
2023-02-24T23:24:13.994Z,97209.50
2023-02-24T23:26:54.176Z,97207.41
2023-02-24T23:29:23.128Z,97220.16
2023-02-24T23:31:54.413Z,97209.25
2023-02-24T23:34:24.900Z,97216.41
2023-02-24T23:36:54.913Z,97220.38
2023-02-24T23:39:23.852Z,97230.03
2023-02-24T23:41:56.716Z,97212.50
2023-02-24T23:44:23.886Z,97216.50
2023-02-24T23:46:50.387Z,97221.94
2023-02-24T23:49:17.328Z,97216.47
2023-02-24T23:51:48.573Z,97228.56
2023-02-24T23:54:17.333Z,97232.31
2023-02-24T23:56:43.864Z,97224.00
2023-02-24T23:59:10.327Z,97239.03
